sensor_id;sensor_type;location;lat;lon;timestamp;pressure;altitude;pressure_sealevel;temperature;humidity
64080;BME280;51042;49.696;10.808;2023-02-21T00:00:51;98876.84;;;3.21;100.00
64080;BME280;51042;49.696;10.808;2023-02-21T00:03:35;98877.16;;;3.16;100.00
64080;BME280;51042;49.696;10.808;2023-02-21T00:06:19;98871.34;;;3.14;100.00
64080;BME280;51042;49.696;10.808;2023-02-21T00:09:03;98870.22;;;3.19;100.00
64080;BME280;51042;49.696;10.808;2023-02-21T00:11:47;98871.78;;;3.20;100.00
64080;BME280;51042;49.696;10.808;2023-02-21T00:14:31;98874.88;;;3.22;100.00
64080;BME280;51042;49.696;10.808;2023-02-21T00:17:15;98872.59;;;3.24;100.00
64080;BME280;51042;49.696;10.808;2023-02-21T00:19:59;98872.97;;;3.22;100.00
64080;BME280;51042;49.696;10.808;2023-02-21T00:22:43;98870.56;;;3.14;100.00
64080;BME280;51042;49.696;10.808;2023-02-21T00:25:27;98868.94;;;3.06;100.00
64080;BME280;51042;49.696;10.808;2023-02-21T00:28:11;98854.53;;;2.98;100.00
64080;BME280;51042;49.696;10.808;2023-02-21T00:30:55;98853.72;;;2.91;100.00
64080;BME280;51042;49.696;10.808;2023-02-21T00:33:39;98857.50;;;2.86;100.00
64080;BME280;51042;49.696;10.808;2023-02-21T00:36:23;98862.13;;;2.82;100.00
64080;BME280;51042;49.696;10.808;2023-02-21T00:39:07;98855.13;;;2.77;100.00
64080;BME280;51042;49.696;10.808;2023-02-21T00:41:51;98851.97;;;2.72;100.00
64080;BME280;51042;49.696;10.808;2023-02-21T00:44:35;98851.09;;;2.64;100.00
64080;BME280;51042;49.696;10.808;2023-02-21T00:47:19;98853.38;;;2.59;100.00
64080;BME280;51042;49.696;10.808;2023-02-21T00:50:03;98852.63;;;2.62;100.00
64080;BME280;51042;49.696;10.808;2023-02-21T00:52:47;98848.03;;;2.66;100.00
64080;BME280;51042;49.696;10.808;2023-02-21T00:55:31;98843.75;;;2.65;100.00
64080;BME280;51042;49.696;10.808;2023-02-21T00:58:14;98846.03;;;2.63;100.00
64080;BME280;51042;49.696;10.808;2023-02-21T01:00:58;98842.94;;;2.61;100.00
64080;BME280;51042;49.696;10.808;2023-02-21T01:03:42;98846.03;;;2.63;100.00
64080;BME280;51042;49.696;10.808;2023-02-21T01:06:26;98846.50;;;2.68;100.00
64080;BME280;51042;49.696;10.808;2023-02-21T01:09:10;98841.84;;;2.69;100.00
64080;BME280;51042;49.696;10.808;2023-02-21T01:11:54;98843.06;;;2.75;100.00
64080;BME280;51042;49.696;10.808;2023-02-21T01:14:38;98845.78;;;2.75;100.00
64080;BME280;51042;49.696;10.808;2023-02-21T01:17:22;98837.59;;;2.68;100.00
64080;BME280;51042;49.696;10.808;2023-02-21T01:20:06;98840.59;;;2.59;100.00
64080;BME280;51042;49.696;10.808;2023-02-21T01:22:50;98840.50;;;2.49;100.00
64080;BME280;51042;49.696;10.808;2023-02-21T01:25:34;98844.34;;;2.47;100.00
64080;BME280;51042;49.696;10.808;2023-02-21T01:28:18;98843.53;;;2.43;100.00
64080;BME280;51042;49.696;10.808;2023-02-21T01:31:02;98840.31;;;2.34;100.00
64080;BME280;51042;49.696;10.808;2023-02-21T01:33:46;98834.88;;;2.31;100.00
64080;BME280;51042;49.696;10.808;2023-02-21T01:36:30;98840.69;;;2.33;100.00
64080;BME280;51042;49.696;10.808;2023-02-21T01:39:14;98836.03;;;2.33;100.00
64080;BME280;51042;49.696;10.808;2023-02-21T01:41:58;98828.25;;;2.28;100.00
64080;BME280;51042;49.696;10.808;2023-02-21T01:44:43;98826.22;;;2.18;100.00
64080;BME280;51042;49.696;10.808;2023-02-21T01:47:28;98828.84;;;2.15;100.00
64080;BME280;51042;49.696;10.808;2023-02-21T01:50:18;98832.31;;;2.12;100.00
64080;BME280;51042;49.696;10.808;2023-02-21T01:53:04;98829.88;;;2.03;100.00
64080;BME280;51042;49.696;10.808;2023-02-21T01:55:49;98824.41;;;1.96;100.00
64080;BME280;51042;49.696;10.808;2023-02-21T01:58:33;98824.31;;;1.92;100.00
64080;BME280;51042;49.696;10.808;2023-02-21T02:01:21;98823.50;;;1.88;100.00
64080;BME280;51042;49.696;10.808;2023-02-21T02:04:07;98811.03;;;1.80;100.00
64080;BME280;51042;49.696;10.808;2023-02-21T02:06:51;98821.13;;;1.83;100.00
64080;BME280;51042;49.696;10.808;2023-02-21T02:09:35;98816.50;;;1.84;100.00
64080;BME280;51042;49.696;10.808;2023-02-21T02:12:34;98817.69;;;1.86;100.00
64080;BME280;51042;49.696;10.808;2023-02-21T02:36:12;98807.22;;;2.92;100.00
64080;BME280;51042;49.696;10.808;2023-02-21T02:39:00;98808.91;;;3.04;100.00
64080;BME280;51042;49.696;10.808;2023-02-21T02:44:21;98808.63;;;3.19;100.00
64080;BME280;51042;49.696;10.808;2023-02-21T02:46:48;98800.16;;;3.24;100.00
64080;BME280;51042;49.696;10.808;2023-02-21T02:49:21;98799.44;;;3.31;100.00
64080;BME280;51042;49.696;10.808;2023-02-21T02:51:47;98803.34;;;3.34;100.00
64080;BME280;51042;49.696;10.808;2023-02-21T02:54:13;98800.63;;;3.37;100.00
64080;BME280;51042;49.696;10.808;2023-02-21T02:56:38;98799.50;;;3.42;100.00
64080;BME280;51042;49.696;10.808;2023-02-21T02:59:10;98803.41;;;3.44;100.00
64080;BME280;51042;49.696;10.808;2023-02-21T03:07:07;98802.06;;;3.75;100.00
64080;BME280;51042;49.696;10.808;2023-02-21T03:09:42;98812.13;;;3.82;100.00
64080;BME280;51042;49.696;10.808;2023-02-21T03:14:58;98805.97;;;3.88;100.00
64080;BME280;51042;49.696;10.808;2023-02-21T03:17:25;98802.50;;;3.91;100.00
64080;BME280;51042;49.696;10.808;2023-02-21T03:19:51;98798.66;;;3.92;100.00
64080;BME280;51042;49.696;10.808;2023-02-21T03:22:19;98808.34;;;3.97;100.00
64080;BME280;51042;49.696;10.808;2023-02-21T03:24:46;98810.69;;;3.98;100.00
64080;BME280;51042;49.696;10.808;2023-02-21T03:27:12;98814.97;;;4.03;100.00
64080;BME280;51042;49.696;10.808;2023-02-21T03:29:39;98813.03;;;4.07;100.00
64080;BME280;51042;49.696;10.808;2023-02-21T03:32:07;98806.88;;;4.10;100.00
64080;BME280;51042;49.696;10.808;2023-02-21T03:34:36;98806.09;;;4.13;100.00
64080;BME280;51042;49.696;10.808;2023-02-21T03:37:03;98804.94;;;4.14;100.00
64080;BME280;51042;49.696;10.808;2023-02-21T03:39:28;98810.78;;;4.20;100.00
64080;BME280;51042;49.696;10.808;2023-02-21T03:41:53;98813.53;;;4.27;100.00
64080;BME280;51042;49.696;10.808;2023-02-21T03:44:19;98814.34;;;4.34;100.00
64080;BME280;51042;49.696;10.808;2023-02-21T03:46:44;98817.06;;;4.38;100.00
64080;BME280;51042;49.696;10.808;2023-02-21T03:49:09;98808.53;;;4.43;100.00
64080;BME280;51042;49.696;10.808;2023-02-21T03:51:34;98810.50;;;4.46;100.00
64080;BME280;51042;49.696;10.808;2023-02-21T03:53:59;98814.00;;;4.50;100.00
64080;BME280;51042;49.696;10.808;2023-02-21T03:56:24;98811.66;;;4.56;100.00
64080;BME280;51042;49.696;10.808;2023-02-21T03:58:49;98815.16;;;4.60;100.00
64080;BME280;51042;49.696;10.808;2023-02-21T04:01:15;98808.19;;;4.62;100.00
64080;BME280;51042;49.696;10.808;2023-02-21T04:03:40;98803.53;;;4.66;100.00
64080;BME280;51042;49.696;10.808;2023-02-21T04:06:05;98811.31;;;4.68;100.00
64080;BME280;51042;49.696;10.808;2023-02-21T04:08:30;98800.84;;;4.70;100.00
64080;BME280;51042;49.696;10.808;2023-02-21T04:10:56;98800.47;;;4.75;100.00
64080;BME280;51042;49.696;10.808;2023-02-21T04:13:21;98807.81;;;4.78;100.00
64080;BME280;51042;49.696;10.808;2023-02-21T04:15:47;98806.28;;;4.80;100.00
64080;BME280;51042;49.696;10.808;2023-02-21T04:18:12;98798.53;;;4.82;100.00
64080;BME280;51042;49.696;10.808;2023-02-21T04:20:37;98798.53;;;4.82;100.00
64080;BME280;51042;49.696;10.808;2023-02-21T04:23:03;98787.66;;;4.82;100.00
64080;BME280;51042;49.696;10.808;2023-02-21T04:25:28;98793.47;;;4.84;100.00
64080;BME280;51042;49.696;10.808;2023-02-21T04:27:53;98787.28;;;4.87;100.00
64080;BME280;51042;49.696;10.808;2023-02-21T04:30:18;98788.03;;;4.91;100.00
64080;BME280;51042;49.696;10.808;2023-02-21T04:32:43;98787.66;;;4.93;100.00
64080;BME280;51042;49.696;10.808;2023-02-21T04:35:08;98788.81;;;4.96;100.00
64080;BME280;51042;49.696;10.808;2023-02-21T04:37:34;98789.22;;;4.94;100.00
64080;BME280;51042;49.696;10.808;2023-02-21T04:39:59;98788.03;;;4.91;100.00
64080;BME280;51042;49.696;10.808;2023-02-21T04:42:24;98780.25;;;4.90;100.00
64080;BME280;51042;49.696;10.808;2023-02-21T04:44:49;98782.97;;;4.90;100.00
64080;BME280;51042;49.696;10.808;2023-02-21T04:47:14;98786.47;;;4.90;100.00
64080;BME280;51042;49.696;10.808;2023-02-21T04:49:39;98779.91;;;4.88;100.00
64080;BME280;51042;49.696;10.808;2023-02-21T04:52:05;98777.56;;;4.86;100.00
64080;BME280;51042;49.696;10.808;2023-02-21T04:54:30;98776.38;;;4.84;100.00
64080;BME280;51042;49.696;10.808;2023-02-21T04:56:55;98777.53;;;4.79;100.00
64080;BME280;51042;49.696;10.808;2023-02-21T04:59:20;98773.66;;;4.77;100.00
64080;BME280;51042;49.696;10.808;2023-02-21T05:01:45;98775.97;;;4.78;100.00
64080;BME280;51042;49.696;10.808;2023-02-21T05:04:10;98763.56;;;4.77;100.00
64080;BME280;51042;49.696;10.808;2023-02-21T05:06:36;98758.53;;;4.76;100.00
64080;BME280;51042;49.696;10.808;2023-02-21T05:09:01;98758.13;;;4.74;100.00
64080;BME280;51042;49.696;10.808;2023-02-21T05:11:27;98753.47;;;4.74;100.00
64080;BME280;51042;49.696;10.808;2023-02-21T05:13:52;98757.34;;;4.77;100.00
64080;BME280;51042;49.696;10.808;2023-02-21T05:16:17;98757.34;;;4.80;100.00
64080;BME280;51042;49.696;10.808;2023-02-21T05:18:44;98762.81;;;4.87;100.00
64080;BME280;51042;49.696;10.808;2023-02-21T05:21:09;98762.41;;;4.92;100.00
64080;BME280;51042;49.696;10.808;2023-02-21T05:23:34;98761.63;;;4.99;100.00
64080;BME280;51042;49.696;10.808;2023-02-21T05:26:02;98760.84;;;5.02;100.00
64080;BME280;51042;49.696;10.808;2023-02-21T05:28:28;98766.66;;;5.08;100.00
64080;BME280;51042;49.696;10.808;2023-02-21T05:30:53;98764.34;;;5.10;100.00
64080;BME280;51042;49.696;10.808;2023-02-21T05:33:19;98764.34;;;5.13;100.00
64080;BME280;51042;49.696;10.808;2023-02-21T05:35:44;98763.97;;;5.15;100.00
64080;BME280;51042;49.696;10.808;2023-02-21T05:38:11;98761.63;;;5.17;100.00
64080;BME280;51042;49.696;10.808;2023-02-21T05:40:37;98751.13;;;5.19;100.00
64080;BME280;51042;49.696;10.808;2023-02-21T05:43:02;98756.19;;;5.20;100.00
64080;BME280;51042;49.696;10.808;2023-02-21T05:45:27;98759.69;;;5.21;100.00
64080;BME280;51042;49.696;10.808;2023-02-21T05:47:52;98759.69;;;5.21;100.00
64080;BME280;51042;49.696;10.808;2023-02-21T05:50:22;98765.91;;;5.21;100.00
64080;BME280;51042;49.696;10.808;2023-02-21T05:52:47;98765.91;;;5.21;100.00
64080;BME280;51042;49.696;10.808;2023-02-21T05:55:12;98765.13;;;5.21;100.00
64080;BME280;51042;49.696;10.808;2023-02-21T05:57:38;98770.19;;;5.22;100.00
64080;BME280;51042;49.696;10.808;2023-02-21T06:00:03;98772.50;;;5.24;100.00
64080;BME280;51042;49.696;10.808;2023-02-21T06:02:28;98767.81;;;5.24;100.00
64080;BME280;51042;49.696;10.808;2023-02-21T06:04:53;98772.50;;;5.24;100.00
64080;BME280;51042;49.696;10.808;2023-02-21T06:07:19;98763.19;;;5.18;100.00
64080;BME280;51042;49.696;10.808;2023-02-21T06:09:44;98754.25;;;5.03;100.00
64080;BME280;51042;49.696;10.808;2023-02-21T06:12:09;98753.84;;;4.83;100.00
64080;BME280;51042;49.696;10.808;2023-02-21T06:14:34;98751.13;;;4.62;100.00
64080;BME280;51042;49.696;10.808;2023-02-21T06:16:59;98754.59;;;4.45;100.00
64080;BME280;51042;49.696;10.808;2023-02-21T06:19:25;98756.88;;;4.32;100.00
64080;BME280;51042;49.696;10.808;2023-02-21T06:21:50;98762.66;;;4.24;100.00
64080;BME280;51042;49.696;10.808;2023-02-21T06:24:15;98766.91;;;4.14;100.00
64080;BME280;51042;49.696;10.808;2023-02-21T06:26:40;98752.53;;;4.06;100.00
64080;BME280;51042;49.696;10.808;2023-02-21T06:29:06;98761.47;;;4.03;100.00
64080;BME280;51042;49.696;10.808;2023-02-21T06:31:31;98762.97;;;3.97;100.00
64080;BME280;51042;49.696;10.808;2023-02-21T06:33:56;98757.94;;;3.92;100.00
64080;BME280;51042;49.696;10.808;2023-02-21T06:36:23;98762.16;;;3.90;100.00
64080;BME280;51042;49.696;10.808;2023-02-21T06:38:49;98774.19;;;3.85;100.00
64080;BME280;51042;49.696;10.808;2023-02-21T06:41:18;98770.28;;;3.83;100.00
64080;BME280;51042;49.696;10.808;2023-02-21T06:43:44;98764.88;;;3.86;100.00
64080;BME280;51042;49.696;10.808;2023-02-21T06:46:09;98758.66;;;3.89;100.00
64080;BME280;51042;49.696;10.808;2023-02-21T06:48:34;98767.22;;;3.95;100.00
64080;BME280;51042;49.696;10.808;2023-02-21T06:50:59;98762.97;;;3.97;100.00
64080;BME280;51042;49.696;10.808;2023-02-21T06:53:24;98770.75;;;4.06;100.00
64080;BME280;51042;49.696;10.808;2023-02-21T06:55:50;98761.09;;;4.08;100.00
64080;BME280;51042;49.696;10.808;2023-02-21T06:58:15;98766.53;;;4.19;100.00
64080;BME280;51042;49.696;10.808;2023-02-21T07:00:40;98760.75;;;4.31;100.00
64080;BME280;51042;49.696;10.808;2023-02-21T07:03:06;98766.63;;;4.47;100.00
64080;BME280;51042;49.696;10.808;2023-02-21T07:05:31;98762.00;;;4.62;100.00
64080;BME280;51042;49.696;10.808;2023-02-21T07:08:01;98769.00;;;4.70;100.00
64080;BME280;51042;49.696;10.808;2023-02-21T07:10:27;98775.22;;;4.74;100.00
64080;BME280;51042;49.696;10.808;2023-02-21T07:12:52;98779.88;;;4.81;100.00
64080;BME280;51042;49.696;10.808;2023-02-21T07:15:17;98781.06;;;4.94;100.00
64080;BME280;51042;49.696;10.808;2023-02-21T07:17:42;98783.38;;;5.10;100.00
64080;BME280;51042;49.696;10.808;2023-02-21T07:20:08;98784.16;;;5.28;100.00
64080;BME280;51042;49.696;10.808;2023-02-21T07:22:33;98786.84;;;5.49;100.00
64080;BME280;51042;49.696;10.808;2023-02-21T07:24:58;98788.38;;;5.68;100.00
64080;BME280;51042;49.696;10.808;2023-02-21T07:27:23;98783.66;;;5.86;100.00
64080;BME280;51042;49.696;10.808;2023-02-21T07:29:49;98795.75;;;5.96;98.85
64080;BME280;51042;49.696;10.808;2023-02-21T07:32:15;98798.00;;;6.08;97.90
64080;BME280;51042;49.696;10.808;2023-02-21T07:34:40;98795.22;;;6.22;97.46
64080;BME280;51042;49.696;10.808;2023-02-21T07:37:05;98790.88;;;6.42;95.99
64080;BME280;51042;49.696;10.808;2023-02-21T07:39:30;98807.53;;;6.55;95.02
64080;BME280;51042;49.696;10.808;2023-02-21T07:41:55;98801.56;;;6.74;94.09
64080;BME280;51042;49.696;10.808;2023-02-21T07:44:21;98806.19;;;6.81;92.84
64080;BME280;51042;49.696;10.808;2023-02-21T07:46:46;98812.34;;;6.95;92.06
64080;BME280;51042;49.696;10.808;2023-02-21T07:49:11;98811.84;;;7.15;90.98
64080;BME280;51042;49.696;10.808;2023-02-21T07:51:36;98809.44;;;7.20;90.40
64080;BME280;51042;49.696;10.808;2023-02-21T07:54:01;98808.97;;;7.29;89.59
64080;BME280;51042;49.696;10.808;2023-02-21T07:56:27;98812.75;;;7.42;89.26
64080;BME280;51042;49.696;10.808;2023-02-21T07:58:52;98814.56;;;7.59;88.11
64080;BME280;51042;49.696;10.808;2023-02-21T08:01:20;98810.94;;;7.69;87.83
64080;BME280;51042;49.696;10.808;2023-02-21T08:03:46;98813.59;;;7.80;86.26
64080;BME280;51042;49.696;10.808;2023-02-21T08:06:11;98811.09;;;7.93;86.35
64080;BME280;51042;49.696;10.808;2023-02-21T08:08:36;98816.91;;;7.98;85.13
64080;BME280;51042;49.696;10.808;2023-02-21T08:11:01;98822.72;;;8.00;85.07
64080;BME280;51042;49.696;10.808;2023-02-21T08:13:26;98817.56;;;8.06;84.48
64080;BME280;51042;49.696;10.808;2023-02-21T08:15:52;98815.81;;;8.23;84.25
64080;BME280;51042;49.696;10.808;2023-02-21T08:18:18;98826.84;;;8.15;84.22
64080;BME280;51042;49.696;10.808;2023-02-21T08:20:45;98829.84;;;8.28;84.87
64080;BME280;51042;49.696;10.808;2023-02-21T08:23:10;98828.56;;;8.40;83.82
64080;BME280;51042;49.696;10.808;2023-02-21T08:25:35;98835.59;;;8.37;83.34
64080;BME280;51042;49.696;10.808;2023-02-21T08:28:00;98835.56;;;8.41;83.57
64080;BME280;51042;49.696;10.808;2023-02-21T08:30:25;98830.69;;;8.55;82.95
64080;BME280;51042;49.696;10.808;2023-02-21T08:32:50;98842.69;;;8.92;82.23
64080;BME280;51042;49.696;10.808;2023-02-21T08:35:16;98843.19;;;9.37;79.88
64080;BME280;51042;49.696;10.808;2023-02-21T08:37:45;98831.50;;;9.79;78.73
64080;BME280;51042;49.696;10.808;2023-02-21T08:40:11;98842.84;;;10.01;77.13
64080;BME280;51042;49.696;10.808;2023-02-21T08:42:36;98845.75;;;9.94;77.81
64080;BME280;51042;49.696;10.808;2023-02-21T08:45:01;98839.03;;;9.75;78.19
64080;BME280;51042;49.696;10.808;2023-02-21T08:47:26;98846.13;;;9.50;79.06
64080;BME280;51042;49.696;10.808;2023-02-21T08:49:51;98841.00;;;9.28;79.51
64080;BME280;51042;49.696;10.808;2023-02-21T08:52:17;98849.72;;;9.20;80.86
64080;BME280;51042;49.696;10.808;2023-02-21T08:54:43;98852.84;;;9.18;81.42
64080;BME280;51042;49.696;10.808;2023-02-21T08:57:08;98851.31;;;8.90;81.55
64080;BME280;51042;49.696;10.808;2023-02-21T08:59:34;98850.69;;;8.79;82.86
64080;BME280;51042;49.696;10.808;2023-02-21T09:02:01;98847.59;;;8.77;83.43
64080;BME280;51042;49.696;10.808;2023-02-21T09:04:26;98853.34;;;8.86;84.22
64080;BME280;51042;49.696;10.808;2023-02-21T09:06:52;98853.19;;;8.97;84.02
64080;BME280;51042;49.696;10.808;2023-02-21T09:09:17;98856.63;;;9.01;83.86
64080;BME280;51042;49.696;10.808;2023-02-21T09:11:42;98854.50;;;9.12;84.29
64080;BME280;51042;49.696;10.808;2023-02-21T09:14:11;98864.00;;;9.31;83.89
64080;BME280;51042;49.696;10.808;2023-02-21T09:16:36;98860.41;;;9.37;82.66
64080;BME280;51042;49.696;10.808;2023-02-21T09:19:01;98864.69;;;9.38;81.97
64080;BME280;51042;49.696;10.808;2023-02-21T09:21:30;98862.50;;;9.53;81.29
64080;BME280;51042;49.696;10.808;2023-02-21T09:23:56;98857.03;;;9.76;81.39
64080;BME280;51042;49.696;10.808;2023-02-21T09:26:23;98857.91;;;9.93;79.23
64080;BME280;51042;49.696;10.808;2023-02-21T09:28:48;98847.91;;;10.03;79.28
64080;BME280;51042;49.696;10.808;2023-02-21T09:31:14;98855.94;;;10.13;78.25
64080;BME280;51042;49.696;10.808;2023-02-21T09:33:39;98856.97;;;10.23;77.20
64080;BME280;51042;49.696;10.808;2023-02-21T09:36:05;98852.88;;;10.31;77.54
64080;BME280;51042;49.696;10.808;2023-02-21T09:38:31;98840.94;;;10.21;76.08
64080;BME280;51042;49.696;10.808;2023-02-21T09:40:58;98844.25;;;10.33;76.73
64080;BME280;51042;49.696;10.808;2023-02-21T09:43:27;98841.78;;;10.38;76.98
64080;BME280;51042;49.696;10.808;2023-02-21T09:45:56;98844.38;;;10.45;76.57
64080;BME280;51042;49.696;10.808;2023-02-21T09:48:22;98841.34;;;10.40;76.57
64080;BME280;51042;49.696;10.808;2023-02-21T09:50:58;98836.78;;;10.53;76.72
64080;BME280;51042;49.696;10.808;2023-02-21T09:53:26;98835.59;;;10.54;76.45
64080;BME280;51042;49.696;10.808;2023-02-21T09:55:54;98831.75;;;10.68;76.59
64080;BME280;51042;49.696;10.808;2023-02-21T09:58:21;98831.84;;;10.64;76.18
64080;BME280;51042;49.696;10.808;2023-02-21T10:00:46;98819.06;;;10.74;76.17
64080;BME280;51042;49.696;10.808;2023-02-21T10:05:44;98815.72;;;11.02;75.14
64080;BME280;51042;49.696;10.808;2023-02-21T10:10:57;98811.22;;;10.92;75.55
64080;BME280;51042;49.696;10.808;2023-02-21T10:13:45;98815.97;;;11.08;76.16
64080;BME280;51042;49.696;10.808;2023-02-21T10:16:23;98812.72;;;11.29;74.62
64080;BME280;51042;49.696;10.808;2023-02-21T10:21:34;98812.53;;;11.52;74.86
64080;BME280;51042;49.696;10.808;2023-02-21T10:24:01;98811.31;;;11.85;73.00
64080;BME280;51042;49.696;10.808;2023-02-21T10:26:29;98809.41;;;11.82;72.79
64080;BME280;51042;49.696;10.808;2023-02-21T10:28:55;98803.47;;;11.68;73.60
64080;BME280;51042;49.696;10.808;2023-02-21T10:33:46;98805.81;;;12.14;73.11
64080;BME280;51042;49.696;10.808;2023-02-21T10:36:12;98808.59;;;11.98;72.11
64080;BME280;51042;49.696;10.808;2023-02-21T10:38:38;98806.81;;;12.62;71.90
64080;BME280;51042;49.696;10.808;2023-02-21T10:41:05;98803.72;;;13.36;69.05
64080;BME280;51042;49.696;10.808;2023-02-21T10:43:35;98795.69;;;13.76;66.59
64080;BME280;51042;49.696;10.808;2023-02-21T10:46:11;98794.03;;;14.00;65.78
64080;BME280;51042;49.696;10.808;2023-02-21T10:48:40;98800.75;;;13.77;65.66
64080;BME280;51042;49.696;10.808;2023-02-21T10:51:10;98804.03;;;13.51;66.68
64080;BME280;51042;49.696;10.808;2023-02-21T10:53:39;98796.66;;;13.35;67.96
64080;BME280;51042;49.696;10.808;2023-02-21T10:58:30;98791.06;;;13.73;66.61
64080;BME280;51042;49.696;10.808;2023-02-21T11:00:55;98787.47;;;13.85;66.54
64080;BME280;51042;49.696;10.808;2023-02-21T11:03:21;98783.03;;;13.66;67.10
64080;BME280;51042;49.696;10.808;2023-02-21T11:05:48;98773.78;;;13.94;66.04
64080;BME280;51042;49.696;10.808;2023-02-21T11:08:14;98776.59;;;13.81;66.42
64080;BME280;51042;49.696;10.808;2023-02-21T11:10:43;98769.84;;;13.48;68.09
64080;BME280;51042;49.696;10.808;2023-02-21T11:15:36;98768.97;;;13.51;68.84
64080;BME280;51042;49.696;10.808;2023-02-21T11:18:09;98764.59;;;13.97;67.37
64080;BME280;51042;49.696;10.808;2023-02-21T11:20:36;98766.53;;;14.09;66.56
64080;BME280;51042;49.696;10.808;2023-02-21T11:23:01;98754.47;;;13.60;68.75
64080;BME280;51042;49.696;10.808;2023-02-21T11:25:31;98747.97;;;13.88;68.67
64080;BME280;51042;49.696;10.808;2023-02-21T11:27:58;98755.72;;;14.46;67.11
64080;BME280;51042;49.696;10.808;2023-02-21T11:30:23;98755.56;;;14.71;65.61
64080;BME280;51042;49.696;10.808;2023-02-21T11:32:49;98734.91;;;15.03;65.62
64080;BME280;51042;49.696;10.808;2023-02-21T11:38:28;98735.44;;;15.29;63.68
64080;BME280;51042;49.696;10.808;2023-02-21T11:40:42;98735.16;;;15.36;63.96
64080;BME280;51042;49.696;10.808;2023-02-21T11:43:09;98741.16;;;14.76;64.84
64080;BME280;51042;49.696;10.808;2023-02-21T11:45:35;98732.00;;;14.05;67.81
64080;BME280;51042;49.696;10.808;2023-02-21T11:48:03;98731.41;;;14.10;68.25
64080;BME280;51042;49.696;10.808;2023-02-21T11:50:32;98731.63;;;13.94;68.43
64080;BME280;51042;49.696;10.808;2023-02-21T11:58:37;98717.16;;;13.68;70.97
64080;BME280;51042;49.696;10.808;2023-02-21T12:01:12;98712.41;;;13.68;70.78
64080;BME280;51042;49.696;10.808;2023-02-21T12:08:59;98709.47;;;13.84;69.95
64080;BME280;51042;49.696;10.808;2023-02-21T12:16:38;98693.66;;;14.07;70.10
64080;BME280;51042;49.696;10.808;2023-02-21T12:24:21;98685.28;;;14.90;67.42
64080;BME280;51042;49.696;10.808;2023-02-21T12:27:05;98675.38;;;15.29;66.15
64080;BME280;51042;49.696;10.808;2023-02-21T12:39:36;98657.50;;;16.12;63.34
64080;BME280;51042;49.696;10.808;2023-02-21T12:42:17;98660.78;;;16.44;62.02
64080;BME280;51042;49.696;10.808;2023-02-21T12:45:03;98644.41;;;16.13;63.16
64080;BME280;51042;49.696;10.808;2023-02-21T12:47:31;98646.16;;;15.92;64.09
64080;BME280;51042;49.696;10.808;2023-02-21T12:50:04;98647.16;;;15.52;64.56
64080;BME280;51042;49.696;10.808;2023-02-21T12:52:52;98646.38;;;15.43;65.74
64080;BME280;51042;49.696;10.808;2023-02-21T12:55:26;98648.84;;;15.59;65.29
64080;BME280;51042;49.696;10.808;2023-02-21T12:58:01;98637.44;;;15.39;66.72
64080;BME280;51042;49.696;10.808;2023-02-21T13:00:30;98637.88;;;15.83;65.23
64080;BME280;51042;49.696;10.808;2023-02-21T13:05:33;98626.38;;;16.26;64.33
64080;BME280;51042;49.696;10.808;2023-02-21T13:08:02;98618.41;;;16.10;63.95
64080;BME280;51042;49.696;10.808;2023-02-21T13:10:51;98610.38;;;16.54;63.17
64080;BME280;51042;49.696;10.808;2023-02-21T13:13:16;98605.41;;;16.34;63.05
64080;BME280;51042;49.696;10.808;2023-02-21T13:15:43;98613.00;;;15.65;65.21
64080;BME280;51042;49.696;10.808;2023-02-21T13:20:44;98606.69;;;14.91;68.02
64080;BME280;51042;49.696;10.808;2023-02-21T13:23:11;98604.53;;;15.50;66.89
64080;BME280;51042;49.696;10.808;2023-02-21T13:28:25;98598.53;;;14.69;69.59
64080;BME280;51042;49.696;10.808;2023-02-21T13:30:52;98595.44;;;14.58;70.28
64080;BME280;51042;49.696;10.808;2023-02-21T13:35:49;98585.00;;;15.81;65.94
64080;BME280;51042;49.696;10.808;2023-02-21T13:38:15;98583.03;;;15.72;66.20
64080;BME280;51042;49.696;10.808;2023-02-21T13:40:50;98579.09;;;15.97;65.38
64080;BME280;51042;49.696;10.808;2023-02-21T13:43:24;98578.75;;;16.04;65.45
64080;BME280;51042;49.696;10.808;2023-02-21T13:45:50;98576.22;;;16.24;63.79
64080;BME280;51042;49.696;10.808;2023-02-21T13:48:24;98578.66;;;15.89;65.73
64080;BME280;51042;49.696;10.808;2023-02-21T13:50:51;98575.03;;;15.65;66.39
64080;BME280;51042;49.696;10.808;2023-02-21T13:53:18;98572.31;;;15.29;67.67
64080;BME280;51042;49.696;10.808;2023-02-21T13:58:29;98573.09;;;15.11;68.78
64080;BME280;51042;49.696;10.808;2023-02-21T14:00:55;98569.97;;;15.73;66.71
64080;BME280;51042;49.696;10.808;2023-02-21T14:11:00;98553.75;;;14.93;69.34
64080;BME280;51042;49.696;10.808;2023-02-21T14:18:43;98553.13;;;14.70;70.44
64080;BME280;51042;49.696;10.808;2023-02-21T14:21:21;98552.56;;;14.36;71.74
64080;BME280;51042;49.696;10.808;2023-02-21T14:23:48;98545.75;;;14.95;69.08
64080;BME280;51042;49.696;10.808;2023-02-21T14:28:59;98546.63;;;14.55;70.74
64080;BME280;51042;49.696;10.808;2023-02-21T14:34:09;98539.84;;;14.38;70.48
64080;BME280;51042;49.696;10.808;2023-02-21T14:36:35;98540.88;;;13.82;73.23
64080;BME280;51042;49.696;10.808;2023-02-21T14:39:02;98543.63;;;13.82;74.31
64080;BME280;51042;49.696;10.808;2023-02-21T14:41:32;98540.22;;;14.18;75.61
64080;BME280;51042;49.696;10.808;2023-02-21T14:44:08;98541.97;;;14.34;72.00
64080;BME280;51042;49.696;10.808;2023-02-21T14:46:59;98543.59;;;14.99;70.57
64080;BME280;51042;49.696;10.808;2023-02-21T14:52:25;98539.00;;;14.10;72.45
64080;BME280;51042;49.696;10.808;2023-02-21T14:57:53;98539.09;;;13.58;74.12
64080;BME280;51042;49.696;10.808;2023-02-21T15:00:49;98540.75;;;13.86;73.56
64080;BME280;51042;49.696;10.808;2023-02-21T15:03:13;98533.41;;;13.61;74.59
64080;BME280;51042;49.696;10.808;2023-02-21T15:05:52;98528.16;;;13.54;75.61